sensor_id;sensor_type;location;lat;lon;timestamp;pressure;altitude;pressure_sealevel;temperature
49785;BMP280;35679;38.732;-121.358;2023-01-13T00:02:34;101362.22;;;16.09
49785;BMP280;35679;38.732;-121.358;2023-01-13T00:05:23;101367.38;;;16.10
49785;BMP280;35679;38.732;-121.358;2023-01-13T00:08:14;101377.00;;;16.11
49785;BMP280;35679;38.732;-121.358;2023-01-13T00:11:04;101384.38;;;16.09
49785;BMP280;35679;38.732;-121.358;2023-01-13T00:13:55;101393.97;;;16.10
49785;BMP280;35679;38.732;-121.358;2023-01-13T00:16:44;101393.97;;;16.10
49785;BMP280;35679;38.732;-121.358;2023-01-13T00:19:34;101392.97;;;16.11
49785;BMP280;35679;38.732;-121.358;2023-01-13T00:22:23;101389.78;;;16.16
49785;BMP280;35679;38.732;-121.358;2023-01-13T00:25:13;101394.25;;;16.15
49785;BMP280;35679;38.732;-121.358;2023-01-13T00:28:02;101391.16;;;16.12
49785;BMP280;35679;38.732;-121.358;2023-01-13T00:30:53;101398.69;;;16.08
49785;BMP280;35679;38.732;-121.358;2023-01-13T00:33:46;101414.66;;;16.08
49785;BMP280;35679;38.732;-121.358;2023-01-13T00:36:39;101421.00;;;16.07
49785;BMP280;35679;38.732;-121.358;2023-01-13T00:39:28;101417.50;;;16.07
49785;BMP280;35679;38.732;-121.358;2023-01-13T00:42:18;101415.00;;;16.05
49785;BMP280;35679;38.732;-121.358;2023-01-13T00:45:26;101417.69;;;16.05
49785;BMP280;35679;38.732;-121.358;2023-01-13T00:48:16;101421.38;;;16.04
49785;BMP280;35679;38.732;-121.358;2023-01-13T00:51:26;101422.38;;;16.03
49785;BMP280;35679;38.732;-121.358;2023-01-13T00:54:15;101421.72;;;16.01
49785;BMP280;35679;38.732;-121.358;2023-01-13T00:57:05;101429.72;;;16.01
49785;BMP280;35679;38.732;-121.358;2023-01-13T00:59:54;101429.09;;;15.99
49785;BMP280;35679;38.732;-121.358;2023-01-13T01:02:44;101430.09;;;15.98
49785;BMP280;35679;38.732;-121.358;2023-01-13T01:05:33;101434.56;;;15.98
49785;BMP280;35679;38.732;-121.358;2023-01-13T01:08:23;101437.44;;;15.96
49785;BMP280;35679;38.732;-121.358;2023-01-13T01:11:15;101434.75;;;15.96
49785;BMP280;35679;38.732;-121.358;2023-01-13T01:14:05;101425.13;;;15.95
49785;BMP280;35679;38.732;-121.358;2023-01-13T01:16:55;101428.16;;;15.92
49785;BMP280;35679;38.732;-121.358;2023-01-13T01:19:45;101421.00;;;15.93
49785;BMP280;35679;38.732;-121.358;2023-01-13T01:22:34;101423.84;;;15.91
49785;BMP280;35679;38.732;-121.358;2023-01-13T01:25:24;101431.63;;;15.93
49785;BMP280;35679;38.732;-121.358;2023-01-13T01:28:14;101431.63;;;15.93
49785;BMP280;35679;38.732;-121.358;2023-01-13T01:34:05;101445.13;;;15.91
49785;BMP280;35679;38.732;-121.358;2023-01-13T01:36:54;101445.50;;;15.88
49785;BMP280;35679;38.732;-121.358;2023-01-13T01:39:44;101458.81;;;15.88
49785;BMP280;35679;38.732;-121.358;2023-01-13T01:42:33;101456.50;;;15.85
49785;BMP280;35679;38.732;-121.358;2023-01-13T01:45:41;101468.81;;;15.86
49785;BMP280;35679;38.732;-121.358;2023-01-13T01:48:35;101454.69;;;15.86
49785;BMP280;35679;38.732;-121.358;2023-01-13T01:51:26;101461.03;;;15.85
49785;BMP280;35679;38.732;-121.358;2023-01-13T01:54:20;101468.34;;;15.83
49785;BMP280;35679;38.732;-121.358;2023-01-13T01:57:18;101471.19;;;15.81
49785;BMP280;35679;38.732;-121.358;2023-01-13T02:00:09;101469.53;;;15.80
49785;BMP280;35679;38.732;-121.358;2023-01-13T02:02:59;101475.25;;;15.77
49785;BMP280;35679;38.732;-121.358;2023-01-13T02:05:50;101477.72;;;15.79
49785;BMP280;35679;38.732;-121.358;2023-01-13T02:08:39;101483.22;;;15.77
49785;BMP280;35679;38.732;-121.358;2023-01-13T02:11:32;101491.22;;;15.77
49785;BMP280;35679;38.732;-121.358;2023-01-13T02:14:40;101495.25;;;15.74
49785;BMP280;35679;38.732;-121.358;2023-01-13T02:20:58;101513.22;;;15.72
49785;BMP280;35679;38.732;-121.358;2023-01-13T02:31:05;101495.50;;;15.64
49785;BMP280;35679;38.732;-121.358;2023-01-13T02:34:24;101496.69;;;15.62
49785;BMP280;35679;38.732;-121.358;2023-01-13T02:37:39;101490.06;;;15.58
49785;BMP280;35679;38.732;-121.358;2023-01-13T02:40:47;101483.91;;;15.57
49785;BMP280;35679;38.732;-121.358;2023-01-13T02:43:43;101474.94;;;15.58
49785;BMP280;35679;38.732;-121.358;2023-01-13T02:49:51;101450.72;;;15.53
49785;BMP280;35679;38.732;-121.358;2023-01-13T02:52:55;101451.72;;;15.52
49785;BMP280;35679;38.732;-121.358;2023-01-13T02:55:49;101450.91;;;15.52
49785;BMP280;35679;38.732;-121.358;2023-01-13T02:58:41;101451.91;;;15.51
49785;BMP280;35679;38.732;-121.358;2023-01-13T03:01:31;101448.06;;;15.53
49785;BMP280;35679;38.732;-121.358;2023-01-13T03:04:47;101440.25;;;15.52
49785;BMP280;35679;38.732;-121.358;2023-01-13T03:11:08;101453.75;;;15.50
49785;BMP280;35679;38.732;-121.358;2023-01-13T03:20:26;101450.63;;;15.47
49785;BMP280;35679;38.732;-121.358;2023-01-13T03:23:26;101447.31;;;15.45
49785;BMP280;35679;38.732;-121.358;2023-01-13T03:26:35;101457.75;;;15.46
49785;BMP280;35679;38.732;-121.358;2023-01-13T03:30:28;101462.25;;;15.46
49785;BMP280;35679;38.732;-121.358;2023-01-13T03:33:33;101463.25;;;15.45
49785;BMP280;35679;38.732;-121.358;2023-01-13T03:36:27;101477.56;;;15.44
49785;BMP280;35679;38.732;-121.358;2023-01-13T03:39:24;101482.88;;;15.44
49785;BMP280;35679;38.732;-121.358;2023-01-13T03:42:23;101491.84;;;15.43
49785;BMP280;35679;38.732;-121.358;2023-01-13T03:45:16;101489.38;;;15.41
49785;BMP280;35679;38.732;-121.358;2023-01-13T03:48:10;101489.56;;;15.40
49785;BMP280;35679;38.732;-121.358;2023-01-13T03:51:05;101477.25;;;15.39
49785;BMP280;35679;38.732;-121.358;2023-01-13T03:53:59;101479.09;;;15.38
49785;BMP280;35679;38.732;-121.358;2023-01-13T03:56:56;101477.81;;;15.34
49785;BMP280;35679;38.732;-121.358;2023-01-13T03:59:49;101476.16;;;15.33
49785;BMP280;35679;38.732;-121.358;2023-01-13T04:02:48;101458.38;;;15.34
49785;BMP280;35679;38.732;-121.358;2023-01-13T04:05:41;101450.38;;;15.34
49785;BMP280;35679;38.732;-121.358;2023-01-13T04:08:33;101470.00;;;15.33
49785;BMP280;35679;38.732;-121.358;2023-01-13T04:11:48;101458.38;;;15.34
49785;BMP280;35679;38.732;-121.358;2023-01-13T04:14:40;101449.75;;;15.32
49785;BMP280;35679;38.732;-121.358;2023-01-13T04:17:31;101457.56;;;15.33
49785;BMP280;35679;38.732;-121.358;2023-01-13T04:20:20;101439.13;;;15.32
49785;BMP280;35679;38.732;-121.358;2023-01-13T04:23:10;101436.81;;;15.29
49785;BMP280;35679;38.732;-121.358;2023-01-13T04:26:01;101431.31;;;15.30
49785;BMP280;35679;38.732;-121.358;2023-01-13T04:28:51;101440.47;;;15.28
49785;BMP280;35679;38.732;-121.358;2023-01-13T04:31:43;101442.31;;;15.27
49785;BMP280;35679;38.732;-121.358;2023-01-13T04:34:32;101447.63;;;15.27
49785;BMP280;35679;38.732;-121.358;2023-01-13T04:37:22;101445.97;;;15.26
49785;BMP280;35679;38.732;-121.358;2023-01-13T04:40:12;101456.41;;;15.28
49785;BMP280;35679;38.732;-121.358;2023-01-13T04:43:02;101452.13;;;15.27
49785;BMP280;35679;38.732;-121.358;2023-01-13T04:45:51;101446.97;;;15.25
49785;BMP280;35679;38.732;-121.358;2023-01-13T04:48:41;101436.53;;;15.24
49785;BMP280;35679;38.732;-121.358;2023-01-13T04:51:30;101441.84;;;15.24
49785;BMP280;35679;38.732;-121.358;2023-01-13T04:54:20;101440.03;;;15.24
49785;BMP280;35679;38.732;-121.358;2023-01-13T04:57:09;101447.16;;;15.24
49785;BMP280;35679;38.732;-121.358;2023-01-13T04:59:59;101448.34;;;15.21
49785;BMP280;35679;38.732;-121.358;2023-01-13T05:02:50;101433.88;;;15.24
49785;BMP280;35679;38.732;-121.358;2023-01-13T05:05:40;101430.69;;;15.20
49785;BMP280;35679;38.732;-121.358;2023-01-13T05:08:29;101435.03;;;15.21
49785;BMP280;35679;38.732;-121.358;2023-01-13T05:11:18;101446.50;;;15.22
49785;BMP280;35679;38.732;-121.358;2023-01-13T05:14:26;101441.53;;;15.19
49785;BMP280;35679;38.732;-121.358;2023-01-13T05:17:34;101436.19;;;15.19
49785;BMP280;35679;38.732;-121.358;2023-01-13T05:20:23;101461.13;;;15.18
49785;BMP280;35679;38.732;-121.358;2023-01-13T05:23:13;101468.09;;;15.19
49785;BMP280;35679;38.732;-121.358;2023-01-13T05:26:22;101464.44;;;15.20
49785;BMP280;35679;38.732;-121.358;2023-01-13T05:29:12;101466.44;;;15.18
49785;BMP280;35679;38.732;-121.358;2023-01-13T05:32:01;101473.75;;;15.24
49785;BMP280;35679;38.732;-121.358;2023-01-13T05:34:53;101468.09;;;15.19
49785;BMP280;35679;38.732;-121.358;2023-01-13T05:37:43;101468.09;;;15.19
49785;BMP280;35679;38.732;-121.358;2023-01-13T05:40:33;101473.41;;;15.19
49785;BMP280;35679;38.732;-121.358;2023-01-13T05:43:41;101481.59;;;15.17
49785;BMP280;35679;38.732;-121.358;2023-01-13T05:46:30;101479.09;;;15.16
49785;BMP280;35679;38.732;-121.358;2023-01-13T05:49:20;101482.56;;;15.16
49785;BMP280;35679;38.732;-121.358;2023-01-13T05:52:10;101488.06;;;15.15
49785;BMP280;35679;38.732;-121.358;2023-01-13T05:54:59;101487.91;;;15.16
49785;BMP280;35679;38.732;-121.358;2023-01-13T05:57:48;101493.41;;;15.15
49785;BMP280;35679;38.732;-121.358;2023-01-13T06:00:38;101494.56;;;15.12
49785;BMP280;35679;38.732;-121.358;2023-01-13T06:03:28;101501.00;;;15.18
49785;BMP280;35679;38.732;-121.358;2023-01-13T06:06:18;101509.97;;;15.17
49785;BMP280;35679;38.732;-121.358;2023-01-13T06:09:07;101507.31;;;15.17
49785;BMP280;35679;38.732;-121.358;2023-01-13T06:11:56;101515.47;;;15.15
49785;BMP280;35679;38.732;-121.358;2023-01-13T06:14:46;101512.63;;;15.17
49785;BMP280;35679;38.732;-121.358;2023-01-13T06:17:35;101509.34;;;15.15
49785;BMP280;35679;38.732;-121.358;2023-01-13T06:20:24;101502.00;;;15.17
49785;BMP280;35679;38.732;-121.358;2023-01-13T06:23:14;101504.50;;;15.18
49785;BMP280;35679;38.732;-121.358;2023-01-13T06:28:53;101502.19;;;15.15
49785;BMP280;35679;38.732;-121.358;2023-01-13T06:31:43;101499.53;;;15.15
49785;BMP280;35679;38.732;-121.358;2023-01-13T06:34:33;101501.38;;;15.15
49785;BMP280;35679;38.732;-121.358;2023-01-13T06:37:23;101492.56;;;15.14
49785;BMP280;35679;38.732;-121.358;2023-01-13T06:40:14;101495.22;;;15.14
49785;BMP280;35679;38.732;-121.358;2023-01-13T06:43:03;101496.25;;;15.13
49785;BMP280;35679;38.732;-121.358;2023-01-13T06:46:05;101493.59;;;15.13
49785;BMP280;35679;38.732;-121.358;2023-01-13T06:48:54;101488.41;;;15.12
49785;BMP280;35679;38.732;-121.358;2023-01-13T06:51:44;101489.44;;;15.11
49785;BMP280;35679;38.732;-121.358;2023-01-13T06:54:34;101488.41;;;15.12
49785;BMP280;35679;38.732;-121.358;2023-01-13T06:57:25;101484.94;;;15.11
49785;BMP280;35679;38.732;-121.358;2023-01-13T07:00:14;101480.00;;;15.08
49785;BMP280;35679;38.732;-121.358;2023-01-13T07:03:06;101484.28;;;15.09
49785;BMP280;35679;38.732;-121.358;2023-01-13T07:05:55;101477.97;;;15.10
49785;BMP280;35679;38.732;-121.358;2023-01-13T07:08:45;101468.34;;;15.09
49785;BMP280;35679;38.732;-121.358;2023-01-13T07:11:35;101466.53;;;15.10
49785;BMP280;35679;38.732;-121.358;2023-01-13T07:14:24;101462.22;;;15.09
49785;BMP280;35679;38.732;-121.358;2023-01-13T07:17:32;101469.50;;;15.07
49785;BMP280;35679;38.732;-121.358;2023-01-13T07:20:24;101460.72;;;15.07
49785;BMP280;35679;38.732;-121.358;2023-01-13T07:23:14;101470.19;;;15.09
49785;BMP280;35679;38.732;-121.358;2023-01-13T07:26:05;101461.53;;;15.07
49785;BMP280;35679;38.732;-121.358;2023-01-13T07:28:55;101450.75;;;15.08
49785;BMP280;35679;38.732;-121.358;2023-01-13T07:31:46;101443.97;;;15.06
49785;BMP280;35679;38.732;-121.358;2023-01-13T07:34:37;101442.94;;;15.07
49785;BMP280;35679;38.732;-121.358;2023-01-13T07:37:36;101441.31;;;15.06
49785;BMP280;35679;38.732;-121.358;2023-01-13T07:40:27;101427.00;;;15.07
49785;BMP280;35679;38.732;-121.358;2023-01-13T07:43:17;101431.31;;;15.08
49785;BMP280;35679;38.732;-121.358;2023-01-13T07:46:22;101433.97;;;15.08
49785;BMP280;35679;38.732;-121.358;2023-01-13T07:49:11;101431.13;;;15.09
49785;BMP280;35679;38.732;-121.358;2023-01-13T07:52:04;101430.31;;;15.09
49785;BMP280;35679;38.732;-121.358;2023-01-13T07:54:54;101425.81;;;15.09
49785;BMP280;35679;38.732;-121.358;2023-01-13T07:57:43;101422.34;;;15.09
49785;BMP280;35679;38.732;-121.358;2023-01-13T08:00:33;101419.50;;;15.10
49785;BMP280;35679;38.732;-121.358;2023-01-13T08:03:23;101416.03;;;15.10
49785;BMP280;35679;38.732;-121.358;2023-01-13T08:06:12;101426.47;;;15.11
49785;BMP280;35679;38.732;-121.358;2023-01-13T08:09:02;101416.84;;;15.10
49785;BMP280;35679;38.732;-121.358;2023-01-13T08:11:55;101416.84;;;15.10
49785;BMP280;35679;38.732;-121.358;2023-01-13T08:15:03;101413.38;;;15.10
49785;BMP280;35679;38.732;-121.358;2023-01-13T08:17:53;101392.28;;;15.08
49785;BMP280;35679;38.732;-121.358;2023-01-13T08:20:42;101386.78;;;15.10
49785;BMP280;35679;38.732;-121.358;2023-01-13T08:23:32;101378.81;;;15.10
49785;BMP280;35679;38.732;-121.358;2023-01-13T08:26:21;101380.47;;;15.11
49785;BMP280;35679;38.732;-121.358;2023-01-13T08:29:11;101379.44;;;15.12
49785;BMP280;35679;38.732;-121.358;2023-01-13T08:32:02;101377.63;;;15.12
49785;BMP280;35679;38.732;-121.358;2023-01-13T08:34:51;101364.34;;;15.12
49785;BMP280;35679;38.732;-121.358;2023-01-13T08:37:44;101372.31;;;15.12
49785;BMP280;35679;38.732;-121.358;2023-01-13T08:40:33;101367.19;;;15.11
49785;BMP280;35679;38.732;-121.358;2023-01-13T08:43:23;101360.81;;;15.12
49785;BMP280;35679;38.732;-121.358;2023-01-13T08:46:12;101354.69;;;15.11
49785;BMP280;35679;38.732;-121.358;2023-01-13T08:49:02;101340.75;;;15.09
49785;BMP280;35679;38.732;-121.358;2023-01-13T08:51:52;101333.63;;;15.10
49785;BMP280;35679;38.732;-121.358;2023-01-13T08:54:42;101351.22;;;15.11
49785;BMP280;35679;38.732;-121.358;2023-01-13T08:57:32;101351.38;;;15.09
49785;BMP280;35679;38.732;-121.358;2023-01-13T09:00:21;101349.56;;;15.10
49785;BMP280;35679;38.732;-121.358;2023-01-13T09:03:10;101348.56;;;15.11
49785;BMP280;35679;38.732;-121.358;2023-01-13T09:06:00;101347.72;;;15.10
49785;BMP280;35679;38.732;-121.358;2023-01-13T09:08:49;101349.56;;;15.10
49785;BMP280;35679;38.732;-121.358;2023-01-13T09:11:44;101349.75;;;15.08
49785;BMP280;35679;38.732;-121.358;2023-01-13T09:14:53;101345.25;;;15.09
49785;BMP280;35679;38.732;-121.358;2023-01-13T09:17:43;101359.19;;;15.11
49785;BMP280;35679;38.732;-121.358;2023-01-13T09:20:32;101360.38;;;15.08
49785;BMP280;35679;38.732;-121.358;2023-01-13T09:23:22;101360.53;;;15.07
49785;BMP280;35679;38.732;-121.358;2023-01-13T09:26:17;101357.88;;;15.07
49785;BMP280;35679;38.732;-121.358;2023-01-13T09:29:08;101366.53;;;15.09
49785;BMP280;35679;38.732;-121.358;2023-01-13T09:31:57;101369.19;;;15.09
49785;BMP280;35679;38.732;-121.358;2023-01-13T09:34:47;101354.41;;;15.07
49785;BMP280;35679;38.732;-121.358;2023-01-13T09:37:49;101346.44;;;15.07
49785;BMP280;35679;38.732;-121.358;2023-01-13T09:40:39;101346.44;;;15.07
49785;BMP280;35679;38.732;-121.358;2023-01-13T09:43:36;101348.28;;;15.06
49785;BMP280;35679;38.732;-121.358;2023-01-13T09:46:52;101338.66;;;15.05
49785;BMP280;35679;38.732;-121.358;2023-01-13T09:49:42;101336.81;;;15.06
49785;BMP280;35679;38.732;-121.358;2023-01-13T09:52:32;101349.63;;;15.02
49785;BMP280;35679;38.732;-121.358;2023-01-13T09:55:29;101341.50;;;15.04
49785;BMP280;35679;38.732;-121.358;2023-01-13T09:58:20;101339.00;;;15.02
49785;BMP280;35679;38.732;-121.358;2023-01-13T10:04:05;101342.66;;;15.01
49785;BMP280;35679;38.732;-121.358;2023-01-13T10:07:00;101344.31;;;15.02
49785;BMP280;35679;38.732;-121.358;2023-01-13T10:09:54;101302.22;;;14.91
49785;BMP280;35679;38.732;-121.358;2023-01-13T10:12:48;101334.69;;;15.01
49785;BMP280;35679;38.732;-121.358;2023-01-13T10:16:14;101337.34;;;15.01
49785;BMP280;35679;38.732;-121.358;2023-01-13T10:19:21;101331.03;;;15.02
49785;BMP280;35679;38.732;-121.358;2023-01-13T10:25:48;101338.38;;;15.00
49785;BMP280;35679;38.732;-121.358;2023-01-13T10:28:49;101322.59;;;14.99
49785;BMP280;35679;38.732;-121.358;2023-01-13T10:31:42;101323.63;;;14.98
49785;BMP280;35679;38.732;-121.358;2023-01-13T10:34:44;101325.09;;;15.00
49785;BMP280;35679;38.732;-121.358;2023-01-13T10:37:36;101305.81;;;14.98
49785;BMP280;35679;38.732;-121.358;2023-01-13T10:40:25;101299.69;;;14.98
49785;BMP280;35679;38.732;-121.358;2023-01-13T10:43:15;101309.47;;;14.97
49785;BMP280;35679;38.732;-121.358;2023-01-13T10:46:10;101298.03;;;14.97
49785;BMP280;35679;38.732;-121.358;2023-01-13T10:49:02;101298.84;;;14.97
49785;BMP280;35679;38.732;-121.358;2023-01-13T10:51:51;101288.59;;;14.94
49785;BMP280;35679;38.732;-121.358;2023-01-13T10:54:51;101284.75;;;14.97
49785;BMP280;35679;38.732;-121.358;2023-01-13T10:57:41;101271.47;;;14.97
49785;BMP280;35679;38.732;-121.358;2023-01-13T11:00:33;101270.00;;;14.94
49785;BMP280;35679;38.732;-121.358;2023-01-13T11:03:23;101264.69;;;14.94
49785;BMP280;35679;38.732;-121.358;2023-01-13T11:06:28;101256.72;;;14.94
49785;BMP280;35679;38.732;-121.358;2023-01-13T11:09:19;101257.72;;;14.93
49785;BMP280;35679;38.732;-121.358;2023-01-13T11:12:31;101253.06;;;14.95
49785;BMP280;35679;38.732;-121.358;2023-01-13T11:15:26;101262.03;;;14.94
49785;BMP280;35679;38.732;-121.358;2023-01-13T11:18:39;101266.50;;;14.94
49785;BMP280;35679;38.732;-121.358;2023-01-13T11:21:41;101267.34;;;14.94
49785;BMP280;35679;38.732;-121.358;2023-01-13T11:24:40;101263.03;;;14.93
49785;BMP280;35679;38.732;-121.358;2023-01-13T11:33:46;101270.19;;;14.93
49785;BMP280;35679;38.732;-121.358;2023-01-13T11:36:39;101266.69;;;14.92
49785;BMP280;35679;38.732;-121.358;2023-01-13T11:40:04;101261.56;;;14.91
49785;BMP280;35679;38.732;-121.358;2023-01-13T11:43:01;101265.22;;;14.90
49785;BMP280;35679;38.732;-121.358;2023-01-13T11:45:56;101260.91;;;14.89
49785;BMP280;35679;38.732;-121.358;2023-01-13T11:48:46;101262.75;;;14.88
49785;BMP280;35679;38.732;-121.358;2023-01-13T11:51:42;101267.69;;;14.91
49785;BMP280;35679;38.732;-121.358;2023-01-13T11:54:46;101271.53;;;14.89
49785;BMP280;35679;38.732;-121.358;2023-01-13T12:01:15;101265.22;;;14.90
49785;BMP280;35679;38.732;-121.358;2023-01-13T12:04:27;101257.25;;;14.90
49785;BMP280;35679;38.732;-121.358;2023-01-13T12:07:39;101243.16;;;14.89
49785;BMP280;35679;38.732;-121.358;2023-01-13T12:14:18;101239.84;;;14.87
49785;BMP280;35679;38.732;-121.358;2023-01-13T12:17:20;101228.41;;;14.87
49785;BMP280;35679;38.732;-121.358;2023-01-13T12:26:18;101181.78;;;14.84
49785;BMP280;35679;38.732;-121.358;2023-01-13T12:29:14;101172.16;;;14.83
49785;BMP280;35679;38.732;-121.358;2023-01-13T12:32:11;101154.38;;;14.84
49785;BMP280;35679;38.732;-121.358;2023-01-13T12:35:33;101140.91;;;14.85
49785;BMP280;35679;38.732;-121.358;2023-01-13T12:38:48;101138.25;;;14.85
49785;BMP280;35679;38.732;-121.358;2023-01-13T12:41:45;101136.41;;;14.86
49785;BMP280;35679;38.732;-121.358;2023-01-13T12:45:20;101126.78;;;14.85
49785;BMP280;35679;38.732;-121.358;2023-01-13T12:49:02;101130.09;;;14.87
49785;BMP280;35679;38.732;-121.358;2023-01-13T12:57:35;101144.38;;;14.86
49785;BMP280;35679;38.732;-121.358;2023-01-13T13:03:34;101127.44;;;14.87
49785;BMP280;35679;38.732;-121.358;2023-01-13T13:06:28;101126.59;;;14.86
49785;BMP280;35679;38.732;-121.358;2023-01-13T13:09:26;101127.63;;;14.85
49785;BMP280;35679;38.732;-121.358;2023-01-13T13:28:04;101116.34;;;14.83
49785;BMP280;35679;38.732;-121.358;2023-01-13T13:31:06;101088.97;;;14.83
49785;BMP280;35679;38.732;-121.358;2023-01-13T13:34:14;101051.94;;;14.81
49785;BMP280;35679;38.732;-121.358;2023-01-13T13:40:45;100942.44;;;14.79
49785;BMP280;35679;38.732;-121.358;2023-01-13T13:43:53;100973.28;;;14.80
49785;BMP280;35679;38.732;-121.358;2023-01-13T13:47:03;101006.78;;;14.81
49785;BMP280;35679;38.732;-121.358;2023-01-13T13:49:54;101012.09;;;14.81
49785;BMP280;35679;38.732;-121.358;2023-01-13T13:52:57;101035.41;;;14.79
49785;BMP280;35679;38.732;-121.358;2023-01-13T13:55:56;101060.75;;;14.82
49785;BMP280;35679;38.732;-121.358;2023-01-13T13:58:48;101038.06;;;14.79
49785;BMP280;35679;38.732;-121.358;2023-01-13T14:01:40;101048.97;;;15.40
49785;BMP280;35679;38.732;-121.358;2023-01-13T14:04:35;101059.69;;;15.47
49785;BMP280;35679;38.732;-121.358;2023-01-13T14:07:26;101058.53;;;15.56
49785;BMP280;35679;38.732;-121.358;2023-01-13T14:10:37;101051.19;;;15.58
49785;BMP280;35679;38.732;-121.358;2023-01-13T14:13:29;101054.28;;;15.61
49785;BMP280;35679;38.732;-121.358;2023-01-13T14:16:19;101049.47;;;15.71
49785;BMP280;35679;38.732;-121.358;2023-01-13T14:19:37;101033.44;;;15.92
49785;BMP280;35679;38.732;-121.358;2023-01-13T14:22:33;101037.81;;;15.99
49785;BMP280;35679;38.732;-121.358;2023-01-13T14:25:37;101051.03;;;15.86
49785;BMP280;35679;38.732;-121.358;2023-01-13T14:28:36;101050.97;;;16.07
49785;BMP280;35679;38.732;-121.358;2023-01-13T14:31:27;101051.84;;;16.14
49785;BMP280;35679;38.732;-121.358;2023-01-13T14:34:18;101067.72;;;16.01
49785;BMP280;35679;38.732;-121.358;2023-01-13T14:43:27;101067.44;;;16.17
49785;BMP280;35679;38.732;-121.358;2023-01-13T14:46:17;101063.13;;;16.16
49785;BMP280;35679;38.732;-121.358;2023-01-13T14:49:38;101051.75;;;16.29
49785;BMP280;35679;38.732;-121.358;2023-01-13T14:52:33;101069.19;;;16.31
49785;BMP280;35679;38.732;-121.358;2023-01-13T14:55:33;101088.22;;;16.28
49785;BMP280;35679;38.732;-121.358;2023-01-13T14:58:27;101093.25;;;16.44
49785;BMP280;35679;38.732;-121.358;2023-01-13T15:01:35;101089.13;;;16.42
49785;BMP280;35679;38.732;-121.358;2023-01-13T15:04:32;101095.03;;;16.37
49785;BMP280;35679;38.732;-121.358;2023-01-13T15:07:29;101076.28;;;16.51
49785;BMP280;35679;38.732;-121.358;2023-01-13T15:10:26;101069.31;;;16.50
49785;BMP280;35679;38.732;-121.358;2023-01-13T15:13:42;101051.09;;;16.54
49785;BMP280;35679;38.732;-121.358;2023-01-13T15:16:42;101051.75;;;16.62
49785;BMP280;35679;38.732;-121.358;2023-01-13T15:19:37;101053.56;;;16.55
49785;BMP280;35679;38.732;-121.358;2023-01-13T15:22:26;101060.53;;;16.56
49785;BMP280;35679;38.732;-121.358;2023-01-13T15:25:17;101052.41;;;16.71
49785;BMP280;35679;38.732;-121.358;2023-01-13T15:28:09;101066.09;;;16.61
49785;BMP280;35679;38.732;-121.358;2023-01-13T15:31:03;101053.56;;;16.62
49785;BMP280;35679;38.732;-121.358;2023-01-13T15:33:52;101039.69;;;16.73
49785;BMP280;35679;38.732;-121.358;2023-01-13T15:36:42;101040.91;;;16.70
49785;BMP280;35679;38.732;-121.358;2023-01-13T15:39:31;101050.34;;;16.66
49785;BMP280;35679;38.732;-121.358;2023-01-13T15:42:20;101049.56;;;16.79
49785;BMP280;35679;38.732;-121.358;2023-01-13T15:45:30;101054.28;;;16.77
49785;BMP280;35679;38.732;-121.358;2023-01-13T15:48:38;101054.06;;;16.72
49785;BMP280;35679;38.732;-121.358;2023-01-13T15:51:29;101050.63;;;16.84
49785;BMP280;35679;38.732;-121.358;2023-01-13T15:54:18;101055.13;;;16.84
49785;BMP280;35679;38.732;-121.358;2023-01-13T15:57:24;101051.63;;;16.77
49785;BMP280;35679;38.732;-121.358;2023-01-13T16:00:19;101049.00;;;16.90
49785;BMP280;35679;38.732;-121.358;2023-01-13T16:03:13;101041.59;;;16.85
49785;BMP280;35679;38.732;-121.358;2023-01-13T16:06:19;101024.78;;;16.85
49785;BMP280;35679;38.732;-121.358;2023-01-13T16:09:12;101033.22;;;16.95
49785;BMP280;35679;38.732;-121.358;2023-01-13T16:12:02;101024.22;;;16.96
49785;BMP280;35679;38.732;-121.358;2023-01-13T16:14:51;101026.63;;;16.84
49785;BMP280;35679;38.732;-121.358;2023-01-13T16:17:42;101024.41;;;16.94
49785;BMP280;35679;38.732;-121.358;2023-01-13T16:20:32;101009.25;;;17.01
49785;BMP280;35679;38.732;-121.358;2023-01-13T16:23:22;101026.03;;;16.89
49785;BMP280;35679;38.732;-121.358;2023-01-13T16:26:26;101029.56;;;17.02
49785;BMP280;35679;38.732;-121.358;2023-01-13T16:29:17;101035.91;;;17.01
49785;BMP280;35679;38.732;-121.358;2023-01-13T16:32:06;101041.44;;;16.93
49785;BMP280;35679;38.732;-121.358;2023-01-13T16:34:56;101039.63;;;17.07
49785;BMP280;35679;38.732;-121.358;2023-01-13T16:37:46;101049.69;;;17.11
49785;BMP280;35679;38.732;-121.358;2023-01-13T16:40:36;101045.97;;;16.99
49785;BMP280;35679;38.732;-121.358;2023-01-13T16:43:25;101054.19;;;17.10
49785;BMP280;35679;38.732;-121.358;2023-01-13T16:46:24;101073.91;;;17.16
49785;BMP280;35679;38.732;-121.358;2023-01-13T16:49:15;101084.31;;;17.05
49785;BMP280;35679;38.732;-121.358;2023-01-13T16:52:05;101080.69;;;17.18
49785;BMP280;35679;38.732;-121.358;2023-01-13T16:54:55;101091.75;;;17.22
49785;BMP280;35679;38.732;-121.358;2023-01-13T16:57:44;101086.81;;;17.12
49785;BMP280;35679;38.732;-121.358;2023-01-13T17:00:33;101083.59;;;17.23
49785;BMP280;35679;38.732;-121.358;2023-01-13T17:03:23;101092.22;;;17.25
49785;BMP280;35679;38.732;-121.358;2023-01-13T17:06:12;101097.91;;;17.16
49785;BMP280;35679;38.732;-121.358;2023-01-13T17:09:16;101098.94;;;17.21
49785;BMP280;35679;38.732;-121.358;2023-01-13T17:12:05;101089.97;;;17.29
49785;BMP280;35679;38.732;-121.358;2023-01-13T17:14:55;101097.94;;;17.22
49785;BMP280;35679;38.732;-121.358;2023-01-13T17:17:45;101093.06;;;17.26
49785;BMP280;35679;38.732;-121.358;2023-01-13T17:20:36;101104.75;;;17.31
49785;BMP280;35679;38.732;-121.358;2023-01-13T17:23:25;101101.66;;;17.28